createdAt,value
2024-03-15T00:00:57.702Z,3.27
2024-03-15T00:03:36.087Z,2.57
2024-03-15T00:06:11.096Z,2.97
2024-03-15T00:08:48.291Z,2.40
2024-03-15T00:11:21.145Z,2.40
2024-03-15T00:13:59.682Z,3.10
2024-03-15T00:19:17.059Z,3.13
2024-03-15T00:21:51.733Z,2.73
2024-03-15T00:24:26.701Z,2.83
2024-03-15T00:26:57.972Z,2.93
2024-03-15T00:29:39.971Z,3.00
2024-03-15T00:32:09.886Z,3.80
2024-03-15T00:34:44.007Z,4.50
2024-03-15T00:37:18.847Z,3.37
2024-03-15T00:39:49.384Z,3.87
2024-03-15T00:42:26.468Z,4.33
2024-03-15T00:44:59.168Z,4.77
2024-03-15T00:50:21.277Z,4.50
2024-03-15T00:52:59.677Z,2.90
2024-03-15T00:55:36.744Z,4.57
2024-03-15T00:58:11.489Z,3.17
2024-03-15T01:00:45.082Z,2.37
2024-03-15T01:03:14.559Z,2.20
2024-03-15T01:05:49.205Z,2.13
2024-03-15T01:08:19.839Z,2.13
2024-03-15T01:10:53.382Z,2.43
2024-03-15T01:13:34.367Z,2.10
2024-03-15T01:16:16.521Z,2.60
2024-03-15T01:18:49.104Z,2.00
2024-03-15T01:21:24.744Z,3.50
2024-03-15T01:24:00.153Z,3.87
2024-03-15T01:26:33.964Z,4.70
2024-03-15T01:29:06.308Z,4.07
2024-03-15T01:34:29.130Z,4.37
2024-03-15T01:37:11.067Z,4.90
2024-03-15T01:39:47.612Z,5.13
2024-03-15T01:42:24.493Z,5.17
2024-03-15T01:44:59.238Z,4.93
2024-03-15T01:47:40.801Z,4.50
2024-03-15T01:50:12.234Z,3.57
2024-03-15T01:55:34.724Z,2.17
2024-03-15T01:58:13.294Z,2.80
2024-03-15T02:00:44.924Z,2.43
2024-03-15T02:03:18.673Z,2.57
2024-03-15T02:05:55.057Z,2.30
2024-03-15T02:08:28.006Z,2.23
2024-03-15T02:11:11.766Z,2.17
2024-03-15T02:13:43.349Z,2.30
2024-03-15T02:16:18.930Z,2.73
2024-03-15T02:18:54.373Z,2.00
2024-03-15T02:21:32.690Z,2.40
2024-03-15T02:24:09.792Z,3.40
2024-03-15T02:26:42.000Z,3.20
2024-03-15T02:29:19.578Z,2.70
2024-03-15T02:31:52.837Z,3.03
2024-03-15T02:34:27.725Z,2.70
2024-03-15T02:36:59.020Z,3.17
2024-03-15T02:39:30.860Z,2.95
2024-03-15T02:41:59.189Z,2.63
2024-03-15T02:44:34.650Z,3.00
2024-03-15T02:47:10.026Z,2.60
2024-03-15T02:49:53.815Z,3.00
2024-03-15T02:52:25.322Z,2.40
2024-03-15T02:55:00.750Z,1.85
2024-03-15T02:57:34.386Z,2.50
2024-03-15T03:00:11.034Z,2.93
2024-03-15T03:02:44.041Z,2.27
2024-03-15T03:05:22.435Z,2.50
2024-03-15T03:07:59.210Z,3.10
2024-03-15T03:10:36.762Z,2.00
2024-03-15T03:13:24.700Z,2.37
2024-03-15T03:16:00.624Z,2.07
2024-03-15T03:18:34.708Z,2.63
2024-03-15T03:21:16.842Z,2.13
2024-03-15T03:23:52.659Z,2.07
2024-03-15T03:29:16.369Z,1.90
2024-03-15T03:31:53.636Z,1.90
2024-03-15T03:34:29.229Z,2.33
2024-03-15T03:37:00.551Z,1.90
2024-03-15T03:39:34.858Z,1.85
2024-03-15T03:42:06.029Z,2.00
2024-03-15T03:44:42.631Z,2.60
2024-03-15T03:47:14.554Z,2.03
2024-03-15T03:52:32.242Z,2.40
2024-03-15T03:55:07.424Z,3.20
2024-03-15T03:57:47.271Z,3.50
2024-03-15T04:00:24.646Z,3.03
2024-03-15T04:02:56.727Z,2.40
2024-03-15T04:05:28.790Z,2.70
2024-03-15T04:08:02.600Z,2.10
2024-03-15T04:10:44.497Z,2.47
2024-03-15T04:13:16.551Z,2.42
2024-03-15T04:15:55.900Z,3.00
2024-03-15T04:18:30.599Z,3.03
2024-03-15T04:21:01.831Z,3.13
2024-03-15T04:23:39.330Z,3.17
2024-03-15T04:26:13.340Z,4.47
2024-03-15T04:28:44.933Z,4.77
2024-03-15T04:31:21.184Z,5.57
2024-03-15T04:34:00.161Z,5.17
2024-03-15T04:36:35.820Z,4.10
2024-03-15T04:39:12.148Z,3.17
2024-03-15T04:41:44.975Z,3.90
2024-03-15T04:46:51.085Z,3.87
2024-03-15T04:49:22.122Z,4.93
2024-03-15T04:52:00.083Z,4.47
2024-03-15T04:54:42.741Z,4.87
2024-03-15T04:57:18.738Z,5.10
2024-03-15T04:59:56.747Z,4.23
2024-03-15T05:02:34.483Z,3.30
2024-03-15T05:05:13.549Z,3.43
2024-03-15T05:07:47.946Z,3.20
2024-03-15T05:10:22.183Z,3.27
2024-03-15T05:13:00.250Z,2.77
2024-03-15T05:15:35.812Z,3.07
2024-03-15T05:18:08.889Z,3.70
2024-03-15T05:20:42.771Z,3.70
2024-03-15T05:23:19.819Z,4.17
2024-03-15T05:25:50.954Z,3.70
2024-03-15T05:28:24.151Z,4.80
2024-03-15T05:31:08.522Z,3.20
2024-03-15T05:33:43.141Z,4.57
2024-03-15T05:36:15.664Z,4.53
2024-03-15T05:38:48.620Z,3.83
2024-03-15T05:41:23.780Z,3.50
2024-03-15T05:46:39.228Z,3.13
2024-03-15T05:49:16.140Z,3.07
2024-03-15T05:51:48.736Z,3.90
2024-03-15T05:54:19.717Z,5.25
2024-03-15T05:56:49.710Z,5.65
2024-03-15T05:59:22.793Z,3.97
2024-03-15T06:01:55.768Z,5.90
2024-03-15T06:04:30.747Z,6.27
2024-03-15T06:07:07.192Z,5.37
2024-03-15T06:09:43.603Z,5.60
2024-03-15T06:12:19.939Z,7.57
2024-03-15T06:14:57.335Z,7.43
2024-03-15T06:17:31.744Z,5.37
2024-03-15T06:20:05.741Z,5.23
2024-03-15T06:22:45.213Z,4.43
2024-03-15T06:25:21.138Z,3.90
2024-03-15T06:27:52.241Z,4.03
2024-03-15T06:30:21.522Z,3.73
2024-03-15T06:33:03.391Z,4.20
2024-03-15T06:38:32.575Z,3.60
2024-03-15T06:41:15.707Z,3.30
2024-03-15T06:44:00.889Z,6.37
2024-03-15T06:46:46.713Z,4.63
2024-03-15T06:49:26.053Z,4.43
2024-03-15T06:52:16.358Z,6.10
2024-03-15T06:57:28.711Z,5.43
2024-03-15T07:00:14.040Z,4.57
2024-03-15T07:02:48.384Z,4.57
2024-03-15T07:05:38.129Z,4.67
2024-03-15T07:08:11.509Z,5.17
2024-03-15T07:10:43.801Z,4.27
2024-03-15T07:13:13.365Z,4.77
2024-03-15T07:15:47.416Z,5.03
2024-03-15T07:18:22.803Z,4.30
2024-03-15T07:20:53.750Z,4.80
2024-03-15T07:23:31.102Z,4.50
2024-03-15T07:26:04.313Z,5.10
2024-03-15T07:28:39.270Z,5.50
2024-03-15T07:31:12.040Z,6.43
2024-03-15T07:33:47.337Z,6.47
2024-03-15T07:36:25.891Z,6.63
2024-03-15T07:38:58.687Z,5.70
2024-03-15T07:41:35.551Z,5.50
2024-03-15T07:44:12.508Z,5.80
2024-03-15T07:46:44.710Z,5.93
2024-03-15T07:49:19.607Z,4.50
2024-03-15T07:51:51.636Z,5.10
2024-03-15T07:54:29.058Z,5.90
2024-03-15T07:56:59.611Z,5.63
2024-03-15T07:59:43.737Z,5.63
2024-03-15T08:02:17.594Z,4.77
2024-03-15T08:04:55.449Z,4.13
2024-03-15T08:07:26.720Z,5.80
2024-03-15T08:10:01.265Z,5.30
2024-03-15T08:12:40.871Z,5.00
2024-03-15T08:15:17.159Z,4.80
2024-03-15T08:17:53.658Z,4.77
2024-03-15T08:20:27.716Z,5.23
2024-03-15T08:23:09.588Z,4.53
2024-03-15T08:25:46.165Z,4.70
2024-03-15T08:28:19.768Z,4.73
2024-03-15T08:30:57.034Z,4.97
2024-03-15T08:33:32.246Z,4.73
2024-03-15T08:36:09.951Z,4.43
2024-03-15T08:38:45.717Z,4.60
2024-03-15T08:41:16.896Z,4.37
2024-03-15T08:43:55.143Z,4.75
2024-03-15T08:46:37.749Z,4.13
2024-03-15T08:49:08.951Z,4.50
2024-03-15T08:51:41.436Z,4.22
2024-03-15T08:54:17.360Z,3.67
2024-03-15T08:56:51.301Z,4.00
2024-03-15T08:59:24.201Z,4.33
2024-03-15T09:01:59.035Z,4.03
2024-03-15T09:04:33.351Z,4.30
2024-03-15T09:07:02.704Z,4.43
2024-03-15T09:09:34.843Z,4.00
2024-03-15T09:12:09.668Z,3.93
2024-03-15T09:14:40.153Z,3.80
2024-03-15T09:17:16.333Z,4.23
2024-03-15T09:19:47.632Z,3.80
2024-03-15T09:22:22.790Z,3.00
2024-03-15T09:24:55.858Z,3.97
2024-03-15T09:27:35.509Z,4.30
2024-03-15T09:30:28.669Z,4.10
2024-03-15T09:33:13.898Z,4.73
2024-03-15T09:35:56.895Z,4.67
2024-03-15T09:38:28.579Z,3.85
2024-03-15T09:43:40.919Z,4.30
2024-03-15T09:46:24.140Z,5.57
2024-03-15T09:48:58.085Z,5.03
2024-03-15T09:51:40.085Z,4.25
2024-03-15T09:54:37.034Z,4.43
2024-03-15T09:57:13.977Z,4.43
2024-03-15T09:59:46.122Z,4.85
2024-03-15T10:02:26.784Z,4.70
2024-03-15T10:05:11.329Z,5.70
2024-03-15T10:07:45.427Z,5.13
2024-03-15T10:10:20.883Z,5.18
2024-03-15T10:12:56.884Z,5.25
2024-03-15T10:15:40.253Z,5.88
2024-03-15T10:18:19.874Z,5.75
2024-03-15T10:21:02.324Z,5.40
2024-03-15T10:23:33.226Z,5.63
2024-03-15T10:26:06.732Z,6.80
2024-03-15T10:28:42.045Z,6.05
2024-03-15T10:31:18.994Z,6.05
2024-03-15T10:34:06.812Z,6.00
2024-03-15T10:36:42.932Z,8.00
2024-03-15T10:39:17.137Z,6.10
2024-03-15T10:41:54.966Z,7.38
2024-03-15T10:44:29.862Z,5.97
2024-03-15T10:47:10.262Z,7.18
2024-03-15T10:49:49.131Z,7.00
2024-03-15T10:52:33.145Z,6.15
2024-03-15T10:55:06.904Z,6.68
2024-03-15T10:57:40.942Z,7.13
2024-03-15T11:00:28.122Z,6.85
2024-03-15T11:03:20.769Z,6.35
2024-03-15T11:05:59.873Z,5.93
2024-03-15T11:08:39.056Z,6.70
2024-03-15T11:11:19.264Z,6.40
2024-03-15T11:13:55.450Z,6.78
2024-03-15T11:16:36.646Z,6.68
2024-03-15T11:19:16.355Z,6.38
2024-03-15T11:21:56.096Z,6.53
2024-03-15T11:24:33.259Z,6.50
2024-03-15T11:27:22.144Z,6.65
2024-03-15T11:30:13.815Z,6.80
2024-03-15T11:32:52.979Z,6.80
2024-03-15T11:35:34.769Z,7.50
2024-03-15T11:38:19.780Z,7.50
2024-03-15T11:40:50.659Z,7.40
2024-03-15T11:43:22.561Z,7.47
2024-03-15T11:46:14.922Z,7.90
2024-03-15T11:48:48.935Z,8.25
2024-03-15T11:51:20.655Z,7.82
2024-03-15T11:54:03.425Z,8.00
2024-03-15T11:56:41.911Z,7.25
2024-03-15T11:59:15.129Z,7.15
2024-03-15T12:01:47.075Z,6.78
2024-03-15T12:04:20.094Z,7.25
2024-03-15T12:06:53.429Z,6.63
2024-03-15T12:09:23.415Z,6.93
2024-03-15T12:11:59.926Z,6.60
2024-03-15T12:14:31.439Z,6.75
2024-03-15T12:17:03.929Z,6.57
2024-03-15T12:19:34.655Z,7.20
2024-03-15T12:22:12.114Z,8.57
2024-03-15T12:24:44.814Z,7.70
2024-03-15T12:27:20.824Z,7.65
2024-03-15T12:29:54.228Z,6.57
2024-03-15T12:32:30.163Z,7.20
2024-03-15T12:35:12.393Z,8.02
2024-03-15T12:40:32.354Z,7.57
2024-03-15T12:43:06.390Z,8.55
2024-03-15T12:45:38.157Z,7.93
2024-03-15T12:48:10.288Z,7.82
2024-03-15T12:50:44.116Z,7.63
2024-03-15T12:53:27.492Z,6.85
2024-03-15T12:56:03.758Z,6.03
2024-03-15T12:58:35.125Z,6.95
2024-03-15T13:01:04.716Z,6.50
2024-03-15T13:03:38.607Z,5.97
2024-03-15T13:06:29.588Z,6.68
2024-03-15T13:09:03.143Z,6.88
2024-03-15T13:11:42.510Z,6.28
2024-03-15T13:14:16.738Z,6.28
2024-03-15T13:16:51.189Z,6.95
2024-03-15T13:19:23.165Z,5.75
2024-03-15T13:21:57.653Z,7.50
2024-03-15T13:24:30.256Z,6.78
2024-03-15T13:27:01.238Z,6.78
2024-03-15T13:34:38.453Z,7.95
2024-03-15T13:37:13.293Z,6.75
2024-03-15T13:39:41.755Z,7.80
2024-03-15T13:42:40.422Z,8.43
2024-03-15T13:45:25.941Z,6.97
2024-03-15T13:48:36.297Z,7.93
2024-03-15T13:51:20.757Z,8.00
2024-03-15T13:53:55.001Z,7.90
2024-03-15T13:56:27.367Z,9.48
2024-03-15T13:59:01.017Z,8.55
2024-03-15T14:01:34.723Z,8.52
2024-03-15T14:04:10.534Z,11.85
2024-03-15T14:06:47.139Z,7.97
2024-03-15T14:09:22.233Z,7.72
2024-03-15T14:12:00.397Z,8.05
2024-03-15T14:14:34.438Z,9.55
2024-03-15T14:17:09.504Z,8.40
2024-03-15T14:19:50.329Z,8.35
2024-03-15T14:22:22.985Z,9.70
2024-03-15T14:24:56.697Z,9.73
2024-03-15T14:27:29.763Z,8.35
2024-03-15T14:30:06.737Z,8.27
2024-03-15T14:32:37.876Z,8.88
2024-03-15T14:35:13.659Z,8.90
2024-03-15T14:37:41.825Z,8.63
2024-03-15T14:40:20.775Z,8.45
2024-03-15T14:42:57.092Z,8.88
2024-03-15T14:45:39.367Z,8.73
2024-03-15T14:48:16.478Z,10.10
2024-03-15T14:50:55.129Z,10.05
2024-03-15T14:53:25.169Z,8.65
2024-03-15T14:55:57.158Z,9.45
2024-03-15T14:58:38.296Z,10.82
2024-03-15T15:01:11.566Z,10.40
2024-03-15T15:03:43.931Z,10.40
2024-03-15T15:06:18.614Z,9.90
2024-03-15T15:08:50.462Z,11.02
2024-03-15T15:11:26.475Z,10.98
2024-03-15T15:13:58.188Z,9.85
2024-03-15T15:16:35.618Z,11.80
2024-03-15T15:19:11.226Z,10.98
2024-03-15T15:21:45.382Z,11.82
2024-03-15T15:24:20.609Z,10.88
2024-03-15T15:26:53.672Z,11.45
2024-03-15T15:29:39.779Z,12.27
2024-03-15T15:32:15.512Z,10.75
2024-03-15T15:34:53.953Z,11.73
2024-03-15T15:37:28.227Z,10.63
2024-03-15T15:40:05.724Z,12.48
2024-03-15T15:42:43.034Z,12.20
2024-03-15T15:45:13.198Z,13.57
2024-03-15T15:47:43.645Z,12.65
2024-03-15T15:50:22.229Z,12.98
2024-03-15T15:52:51.180Z,12.98
2024-03-15T15:55:26.912Z,13.23
2024-03-15T15:57:59.053Z,13.95
2024-03-15T16:00:46.540Z,14.07
2024-03-15T16:03:21.621Z,13.45
2024-03-15T16:05:53.778Z,14.23
2024-03-15T16:08:22.690Z,13.93
2024-03-15T16:11:11.906Z,13.50
2024-03-15T16:13:45.146Z,13.80
2024-03-15T16:16:17.360Z,14.18
2024-03-15T16:18:45.391Z,13.60
2024-03-15T16:21:22.867Z,14.55
2024-03-15T16:23:59.554Z,15.05
2024-03-15T16:26:37.861Z,14.93
2024-03-15T16:29:15.567Z,14.60
2024-03-15T16:31:46.272Z,14.52
2024-03-15T16:34:17.310Z,14.45
2024-03-15T16:36:45.602Z,14.18
2024-03-15T16:39:21.048Z,13.45
2024-03-15T16:41:52.900Z,14.63
2024-03-15T16:44:29.509Z,15.98
2024-03-15T16:47:03.867Z,14.60
2024-03-15T16:49:39.148Z,14.15
2024-03-15T16:52:22.167Z,16.05
2024-03-15T16:54:55.437Z,14.77
2024-03-15T16:57:31.743Z,13.40
2024-03-15T17:00:01.698Z,15.93
2024-03-15T17:02:45.543Z,15.10
2024-03-15T17:05:27.373Z,15.55
2024-03-15T17:10:43.215Z,28.25
2024-03-15T17:13:25.130Z,16.95
2024-03-15T17:16:04.368Z,15.20
2024-03-15T17:18:37.023Z,15.77
2024-03-15T17:24:01.037Z,15.82
2024-03-15T17:26:45.723Z,15.13
2024-03-15T17:29:22.067Z,17.33
2024-03-15T17:31:59.332Z,16.70
2024-03-15T17:34:37.942Z,16.75
2024-03-15T17:37:08.459Z,18.75
2024-03-15T17:39:38.840Z,16.90
2024-03-15T17:42:12.804Z,15.95
2024-03-15T17:44:49.321Z,17.83
2024-03-15T17:47:22.997Z,17.33
2024-03-15T17:49:58.717Z,16.33
2024-03-15T17:52:32.244Z,29.53
2024-03-15T17:55:03.300Z,33.17
2024-03-15T17:57:35.571Z,28.58
2024-03-15T18:00:14.746Z,19.45
2024-03-15T18:02:49.306Z,19.67
2024-03-15T18:05:24.960Z,19.10
2024-03-15T18:07:57.571Z,16.58
2024-03-15T18:10:36.337Z,15.43
2024-03-15T18:13:11.147Z,15.83
2024-03-15T18:15:42.535Z,16.83
2024-03-15T18:18:18.543Z,17.10
2024-03-15T18:20:54.370Z,16.40
2024-03-15T18:23:29.286Z,17.73
2024-03-15T18:26:00.068Z,15.50
2024-03-15T18:28:30.865Z,14.40
2024-03-15T18:31:11.024Z,11.90
2024-03-15T18:33:46.560Z,16.30
2024-03-15T18:36:23.523Z,10.93
2024-03-15T18:38:57.523Z,15.20
2024-03-15T18:41:27.098Z,15.03
2024-03-15T18:43:57.405Z,14.50
2024-03-15T18:46:33.374Z,15.47
2024-03-15T18:49:13.975Z,17.27
2024-03-15T18:51:51.840Z,16.60
2024-03-15T18:54:28.696Z,16.10
2024-03-15T18:57:08.117Z,17.10
2024-03-15T18:59:41.438Z,20.53
2024-03-15T19:02:17.056Z,22.27
2024-03-15T19:04:53.209Z,21.53
2024-03-15T19:07:25.590Z,18.63
2024-03-15T19:10:09.530Z,19.30
2024-03-15T19:12:43.046Z,20.97
2024-03-15T19:15:14.354Z,21.07
2024-03-15T19:17:53.854Z,20.02
2024-03-15T19:20:22.589Z,21.60
2024-03-15T19:22:54.385Z,18.00
2024-03-15T19:25:27.748Z,20.13
2024-03-15T19:28:00.652Z,22.73
2024-03-15T19:30:33.922Z,18.57
2024-03-15T19:33:08.950Z,22.00
2024-03-15T19:35:42.933Z,22.13
2024-03-15T19:38:15.748Z,21.80
2024-03-15T19:40:52.181Z,21.53
2024-03-15T19:43:27.050Z,22.57
2024-03-15T19:45:59.617Z,21.27
2024-03-15T19:48:32.883Z,22.13
2024-03-15T19:51:03.360Z,22.13
2024-03-15T19:53:36.914Z,24.43
2024-03-15T19:56:07.526Z,24.33
2024-03-15T19:58:43.760Z,23.20
2024-03-15T20:01:16.914Z,22.77
2024-03-15T20:03:53.114Z,22.87
2024-03-15T20:06:22.525Z,21.47
2024-03-15T20:08:54.769Z,24.10
2024-03-15T20:11:25.253Z,21.73
2024-03-15T20:14:04.887Z,20.37
2024-03-15T20:16:36.977Z,23.40
2024-03-15T20:19:08.670Z,21.77
2024-03-15T20:24:39.018Z,22.10
2024-03-15T20:27:13.006Z,21.00
2024-03-15T20:29:45.798Z,20.57
2024-03-15T20:32:15.233Z,21.35
2024-03-15T20:34:49.137Z,22.90
2024-03-15T20:37:22.695Z,23.97
2024-03-15T20:39:57.311Z,24.60
2024-03-15T20:42:30.958Z,22.63
2024-03-15T20:44:59.061Z,24.87
2024-03-15T20:47:34.034Z,25.43
2024-03-15T20:50:11.928Z,25.93
2024-03-15T20:52:44.518Z,22.97
2024-03-15T20:55:17.441Z,26.30
2024-03-15T20:57:50.948Z,23.43
2024-03-15T21:00:28.693Z,24.30
2024-03-15T21:02:59.999Z,26.27
2024-03-15T21:05:36.991Z,27.03
2024-03-15T21:08:12.543Z,27.97
2024-03-15T21:10:59.699Z,27.13
2024-03-15T21:13:30.464Z,28.63
2024-03-15T21:16:04.979Z,26.40
2024-03-15T21:18:36.130Z,24.80
2024-03-15T21:21:04.955Z,26.88
2024-03-15T21:26:19.762Z,26.20
2024-03-15T21:31:36.178Z,28.10
2024-03-15T21:34:08.650Z,25.77
2024-03-15T21:36:58.198Z,26.80
2024-03-15T21:39:33.388Z,22.00
2024-03-15T21:44:51.072Z,26.97
2024-03-15T21:47:24.447Z,22.60
2024-03-15T21:49:56.089Z,28.03
2024-03-15T21:52:28.852Z,24.47
2024-03-15T21:55:01.484Z,23.87
2024-03-15T21:57:39.321Z,27.48
2024-03-15T22:00:27.967Z,27.10
2024-03-15T22:03:03.371Z,23.50
2024-03-15T22:05:43.795Z,26.33
2024-03-15T22:08:12.668Z,27.50
2024-03-15T22:10:44.370Z,26.37
2024-03-15T22:15:53.761Z,23.37
2024-03-15T22:18:28.410Z,25.47
2024-03-15T22:21:02.273Z,25.03
2024-03-15T22:23:37.303Z,25.65
2024-03-15T22:26:10.989Z,24.87
2024-03-15T22:28:48.724Z,23.93
2024-03-15T22:31:22.429Z,22.97
2024-03-15T22:33:52.662Z,23.90
2024-03-15T22:36:27.243Z,23.50
2024-03-15T22:39:05.088Z,24.40
2024-03-15T22:41:43.089Z,24.03
2024-03-15T22:44:20.701Z,25.87
2024-03-15T22:46:56.564Z,25.30
2024-03-15T22:49:30.846Z,23.47
2024-03-15T22:52:02.565Z,23.10
2024-03-15T22:54:39.061Z,22.90
2024-03-15T22:57:12.392Z,23.60
2024-03-15T22:59:45.702Z,21.37
2024-03-15T23:02:15.615Z,25.10
2024-03-15T23:04:50.815Z,21.20
2024-03-15T23:07:23.556Z,22.33
2024-03-15T23:10:04.463Z,23.57
2024-03-15T23:12:39.729Z,22.95
2024-03-15T23:15:13.252Z,24.70
2024-03-15T23:17:57.539Z,23.37
2024-03-15T23:20:27.151Z,24.00
2024-03-15T23:23:01.279Z,25.80
2024-03-15T23:25:32.890Z,23.17
2024-03-15T23:28:12.041Z,24.40
2024-03-15T23:33:33.919Z,22.03
2024-03-15T23:36:12.031Z,24.07
2024-03-15T23:38:43.008Z,25.07
2024-03-15T23:41:20.796Z,24.57
2024-03-15T23:43:57.472Z,23.57
2024-03-15T23:46:35.316Z,23.80
2024-03-15T23:49:10.165Z,22.00
2024-03-15T23:51:42.405Z,23.97
2024-03-15T23:54:18.622Z,24.90
2024-03-15T23:56:53.674Z,26.97
2024-03-15T23:59:28.677Z,22.87
